Time;durP1;ratioP1;P1;durP2;ratioP2;P2;SDS_P1;SDS_P2;PMS_P1;PMS_P2;Temp;Humidity;BMP_temperature;BMP_pressure;BME280_temperature;BME280_humidity;BME280_pressure;Samples;Min_cycle;Max_cycle;Signal;HPM_P1;HPM_P2
2023/08/21 00:00:19;;;;;;;6.83;5.40;;;;;;;;;;5058788;28;20274;-75
2023/08/21 00:02:45;;;;;;;7.43;5.63;;;;;;;;;;5060668;28;20284;-75
2023/08/21 00:05:11;;;;;;;8.53;5.97;;;;;;;;;;5061601;28;20189;-74
2023/08/21 00:07:38;;;;;;;6.73;5.43;;;;;;;;;;5058250;28;20185;-76
2023/08/21 00:10:04;;;;;;;8.03;6.37;;;;;;;;;;5060341;28;20212;-75
2023/08/21 00:12:30;;;;;;;8.03;5.90;;;;;;;;;;5060729;28;20238;-75
2023/08/21 00:14:56;;;;;;;6.23;5.60;;;;;;;;;;5057273;28;20209;-75
2023/08/21 00:17:23;;;;;;;7.63;5.80;;;;;;;;;;5060446;28;20190;-75
2023/08/21 00:19:49;;;;;;;6.30;5.70;;;;;;;;;;5061061;28;20184;-75
2023/08/21 00:22:15;;;;;;;7.03;6.00;;;;;;;;;;5059108;28;20545;-75
2023/08/21 00:24:41;;;;;;;7.20;5.90;;;;;;;;;;5061896;28;20184;-75
2023/08/21 00:27:07;;;;;;;8.23;5.87;;;;;;;;;;5059714;28;20186;-75
2023/08/21 00:29:33;;;;;;;6.70;5.67;;;;;;;;;;5058291;28;20291;-75
2023/08/21 00:31:59;;;;;;;9.27;5.93;;;;;;;;;;5061472;28;20178;-75
2023/08/21 00:34:26;;;;;;;7.40;5.70;;;;;;;;;;5054623;28;20178;-75
2023/08/21 00:36:52;;;;;;;6.10;5.33;;;;;;;;;;5066252;28;20284;-75
2023/08/21 00:39:18;;;;;;;6.70;5.43;;;;;;;;;;5056754;28;20193;-75
2023/08/21 00:41:44;;;;;;;6.10;5.60;;;;;;;;;;5058691;28;20666;-75
2023/08/21 00:44:11;;;;;;;6.63;5.50;;;;;;;;;;5043750;28;20217;-75
2023/08/21 00:46:37;;;;;;;6.00;5.30;;;;;;;;;;5059963;28;20257;-75
2023/08/21 00:49:04;;;;;;;8.13;5.63;;;;;;;;;;5060227;28;20454;-75
2023/08/21 00:51:31;;;;;;;5.73;5.03;;;;;;;;;;5054703;28;20206;-75
2023/08/21 00:53:58;;;;;;;6.60;5.20;;;;;;;;;;5074037;28;20178;-75
2023/08/21 00:56:24;;;;;;;7.20;5.40;;;;;;;;;;5058839;28;20205;-75
2023/08/21 00:58:50;;;;;;;7.40;5.53;;;;;;;;;;5057469;28;20187;-75
2023/08/21 01:01:19;;;;;;;6.50;5.67;;;;;;;;;;5059809;28;20178;-75
2023/08/21 01:03:45;;;;;;;7.83;6.07;;;;;;;;;;5044794;28;20262;-75
2023/08/21 01:06:12;;;;;;;7.70;6.53;;;;;;;;;;5058399;28;20203;-75
2023/08/21 01:08:47;;;;;;;9.27;6.83;;;;;;;;;;5048863;28;20213;-75
2023/08/21 01:11:31;;;;;;;7.93;6.70;;;;;;;;;;5074784;28;20237;-75
2023/08/21 01:14:10;;;;;;;9.10;6.67;;;;;;;;;;5049987;28;20197;-75
2023/08/21 01:16:37;;;;;;;7.57;6.73;;;;;;;;;;5081774;22;20250;-74
2023/08/21 01:19:04;;;;;;;8.83;6.97;;;;;;;;;;5043743;28;20194;-75
2023/08/21 01:21:30;;;;;;;8.53;6.00;;;;;;;;;;5038731;28;20245;-75
2023/08/21 01:23:56;;;;;;;10.33;6.60;;;;;;;;;;5038834;28;20188;-75
2023/08/21 01:26:22;;;;;;;7.90;6.90;;;;;;;;;;5024200;28;20206;-75
2023/08/21 01:28:49;;;;;;;7.80;6.43;;;;;;;;;;5036946;28;20236;-75
2023/08/21 01:31:25;;;;;;;7.03;6.20;;;;;;;;;;5038584;28;20193;-75
2023/08/21 01:33:57;;;;;;;7.07;5.97;;;;;;;;;;5041772;28;20192;-74
2023/08/21 01:36:24;;;;;;;6.47;5.70;;;;;;;;;;5038486;28;20307;-74
2023/08/21 01:38:50;;;;;;;7.93;6.93;;;;;;;;;;5042903;28;20192;-74
2023/08/21 01:41:16;;;;;;;8.40;6.67;;;;;;;;;;5040322;28;20699;-75
2023/08/21 01:43:42;;;;;;;8.70;6.80;;;;;;;;;;5040331;28;20248;-75
2023/08/21 01:46:09;;;;;;;7.90;6.70;;;;;;;;;;5034731;28;20210;-74
2023/08/21 01:48:35;;;;;;;8.10;7.30;;;;;;;;;;5038097;28;20441;-75
2023/08/21 01:51:02;;;;;;;8.87;7.60;;;;;;;;;;5037893;28;20556;-75
2023/08/21 01:53:28;;;;;;;8.90;7.63;;;;;;;;;;5041069;28;20187;-75
2023/08/21 01:55:54;;;;;;;10.23;7.90;;;;;;;;;;5039700;28;20202;-75
2023/08/21 01:58:20;;;;;;;8.23;7.43;;;;;;;;;;5042706;28;20666;-74
2023/08/21 02:00:47;;;;;;;8.10;7.30;;;;;;;;;;5037888;28;20194;-75
2023/08/21 02:03:13;;;;;;;9.10;8.20;;;;;;;;;;5038637;28;20206;-75
2023/08/21 02:05:40;;;;;;;9.50;8.60;;;;;;;;;;5042641;28;20251;-74
2023/08/21 02:08:06;;;;;;;9.20;8.30;;;;;;;;;;5043591;28;20251;-74
2023/08/21 02:10:35;;;;;;;9.43;8.57;;;;;;;;;;5041934;28;20693;-74
2023/08/21 02:13:01;;;;;;;8.50;7.70;;;;;;;;;;5042881;28;20217;-75
2023/08/21 02:15:27;;;;;;;9.00;8.07;;;;;;;;;;5041180;28;20220;-75
2023/08/21 02:17:54;;;;;;;10.20;8.30;;;;;;;;;;5046532;28;20310;-75
2023/08/21 02:20:20;;;;;;;8.83;7.93;;;;;;;;;;5046126;28;20198;-74
2023/08/21 02:22:46;;;;;;;7.80;7.00;;;;;;;;;;5045184;28;20182;-74
2023/08/21 02:25:12;;;;;;;7.70;6.87;;;;;;;;;;5043563;28;20216;-74
2023/08/21 02:27:38;;;;;;;8.23;6.93;;;;;;;;;;5044712;28;20268;-75
2023/08/21 02:30:08;;;;;;;8.03;7.00;;;;;;;;;;5045693;28;20209;-75
2023/08/21 02:32:35;;;;;;;10.03;7.50;;;;;;;;;;5029665;28;20187;-74
2023/08/21 02:35:01;;;;;;;8.87;7.03;;;;;;;;;;5048523;28;20305;-74
2023/08/21 02:37:27;;;;;;;8.43;7.20;;;;;;;;;;5050447;28;20207;-74
2023/08/21 02:39:55;;;;;;;12.23;7.90;;;;;;;;;;5027608;28;20273;-74
2023/08/21 02:42:21;;;;;;;9.10;8.20;;;;;;;;;;5026229;28;20248;-75
2023/08/21 02:44:47;;;;;;;8.60;7.80;;;;;;;;;;5041168;28;20256;-74
2023/08/21 02:47:13;;;;;;;8.87;7.97;;;;;;;;;;5044148;28;20683;-74
2023/08/21 02:49:39;;;;;;;8.90;8.00;;;;;;;;;;5042927;28;20753;-74
2023/08/21 02:52:05;;;;;;;9.30;8.30;;;;;;;;;;5045495;28;20720;-74
2023/08/21 02:54:32;;;;;;;8.37;7.50;;;;;;;;;;5044231;28;20218;-74
2023/08/21 02:56:58;;;;;;;8.67;7.87;;;;;;;;;;5045662;28;20209;-73
2023/08/21 02:59:24;;;;;;;9.00;8.00;;;;;;;;;;5046689;28;20186;-74
2023/08/21 03:01:50;;;;;;;10.10;9.00;;;;;;;;;;5048941;28;20189;-74
2023/08/21 03:04:16;;;;;;;11.17;9.67;;;;;;;;;;5046593;28;20182;-75
2023/08/21 03:06:43;;;;;;;12.87;10.30;;;;;;;;;;5041277;28;20607;-74
2023/08/21 03:09:09;;;;;;;12.37;9.70;;;;;;;;;;5044740;28;20232;-74
2023/08/21 03:11:36;;;;;;;12.43;10.33;;;;;;;;;;5043246;28;20558;-75
2023/08/21 03:14:02;;;;;;;10.30;9.30;;;;;;;;;;5029431;28;20199;-74
2023/08/21 03:16:28;;;;;;;11.80;9.80;;;;;;;;;;5039250;28;20218;-75
2023/08/21 03:18:55;;;;;;;10.83;9.50;;;;;;;;;;5042839;28;20691;-74
2023/08/21 03:21:23;;;;;;;10.90;9.77;;;;;;;;;;5044394;28;20591;-74
2023/08/21 03:23:55;;;;;;;10.00;8.97;;;;;;;;;;5044337;28;20185;-74
2023/08/21 03:26:22;;;;;;;12.07;9.60;;;;;;;;;;5041608;28;20217;-74
2023/08/21 03:28:48;;;;;;;10.47;9.40;;;;;;;;;;5038912;28;20300;-74
2023/08/21 03:31:15;;;;;;;11.03;9.03;;;;;;;;;;5030660;28;20178;-74
2023/08/21 03:33:41;;;;;;;9.57;8.57;;;;;;;;;;5047352;28;20269;-74
2023/08/21 03:36:08;;;;;;;8.50;7.63;;;;;;;;;;5044083;28;20197;-74
2023/08/21 03:38:35;;;;;;;9.60;8.60;;;;;;;;;;5060568;28;20190;-74
2023/08/21 03:41:02;;;;;;;8.77;7.80;;;;;;;;;;5046738;28;20244;-74
2023/08/21 03:43:28;;;;;;;9.77;8.77;;;;;;;;;;5046595;28;20189;-74
2023/08/21 03:45:55;;;;;;;9.53;8.10;;;;;;;;;;5039175;28;20288;-74
2023/08/21 03:48:22;;;;;;;8.77;7.97;;;;;;;;;;5038316;28;20682;-74
2023/08/21 03:50:49;;;;;;;8.73;7.83;;;;;;;;;;5062288;28;20189;-73
2023/08/21 03:53:17;;;;;;;11.57;7.70;;;;;;;;;;5041350;28;20643;-74
2023/08/21 03:55:43;;;;;;;8.73;7.80;;;;;;;;;;5045932;28;20289;-74
2023/08/21 03:58:10;;;;;;;7.73;6.97;;;;;;;;;;5038554;28;20202;-74
2023/08/21 04:00:36;;;;;;;7.73;6.93;;;;;;;;;;5041012;28;20697;-74
2023/08/21 04:03:03;;;;;;;9.63;7.13;;;;;;;;;;5028606;28;20184;-74
2023/08/21 04:05:29;;;;;;;9.07;7.77;;;;;;;;;;5043101;28;20234;-74
2023/08/21 04:07:56;;;;;;;8.23;7.50;;;;;;;;;;5040846;28;20216;-74
2023/08/21 04:10:22;;;;;;;9.13;6.67;;;;;;;;;;5044906;28;20189;-74
2023/08/21 04:12:48;;;;;;;9.43;7.03;;;;;;;;;;5047828;28;20185;-74
2023/08/21 04:15:14;;;;;;;8.83;6.80;;;;;;;;;;5042551;28;20181;-74
2023/08/21 04:17:41;;;;;;;8.17;7.37;;;;;;;;;;5039551;28;20187;-74
2023/08/21 04:20:07;;;;;;;10.90;7.63;;;;;;;;;;5041579;28;20174;-73
2023/08/21 04:22:34;;;;;;;8.57;7.30;;;;;;;;;;5040714;28;20194;-74
2023/08/21 04:25:01;;;;;;;8.20;7.40;;;;;;;;;;5024076;28;20754;-74
2023/08/21 04:27:27;;;;;;;8.43;7.60;;;;;;;;;;5041479;28;20257;-74
2023/08/21 04:29:54;;;;;;;9.30;7.87;;;;;;;;;;5025487;28;20210;-74
2023/08/21 04:32:20;;;;;;;10.07;8.73;;;;;;;;;;5023906;28;20193;-74
2023/08/21 04:34:46;;;;;;;10.00;9.10;;;;;;;;;;5040601;28;20170;-75
2023/08/21 04:37:12;;;;;;;11.37;10.17;;;;;;;;;;5022394;28;20220;-74
2023/08/21 04:39:38;;;;;;;12.47;9.97;;;;;;;;;;5039384;28;20200;-74
2023/08/21 04:42:04;;;;;;;10.30;9.23;;;;;;;;;;5043589;28;20201;-74
2023/08/21 04:44:31;;;;;;;11.37;9.47;;;;;;;;;;5039458;28;20256;-74
2023/08/21 04:46:57;;;;;;;9.40;8.50;;;;;;;;;;5023942;28;20566;-74
2023/08/21 04:49:23;;;;;;;12.40;9.20;;;;;;;;;;5037792;28;20269;-75
2023/08/21 04:51:50;;;;;;;9.80;8.83;;;;;;;;;;5041245;28;20657;-74
2023/08/21 04:54:16;;;;;;;10.27;8.60;;;;;;;;;;5025292;28;20193;-74
2023/08/21 04:56:42;;;;;;;9.17;8.27;;;;;;;;;;5045489;28;20209;-74
2023/08/21 04:59:11;;;;;;;9.87;8.53;;;;;;;;;;5042187;28;20187;-74
2023/08/21 05:01:37;;;;;;;9.67;8.50;;;;;;;;;;5038685;28;20704;-74
2023/08/21 05:04:03;;;;;;;9.80;8.77;;;;;;;;;;5046176;28;20244;-74
2023/08/21 05:06:30;;;;;;;13.80;8.83;;;;;;;;;;5042760;28;20220;-73
2023/08/21 05:08:56;;;;;;;10.33;8.80;;;;;;;;;;5042330;28;20214;-75
2023/08/21 05:11:22;;;;;;;11.40;9.33;;;;;;;;;;5043781;28;20194;-74
2023/08/21 05:13:48;;;;;;;10.60;8.87;;;;;;;;;;5044555;28;20240;-74
2023/08/21 05:16:17;;;;;;;11.40;9.10;;;;;;;;;;5039631;28;20691;-74
2023/08/21 05:18:44;;;;;;;11.93;9.20;;;;;;;;;;5042335;28;20267;-72
2023/08/21 05:21:10;;;;;;;13.20;9.83;;;;;;;;;;5031736;28;20178;-73
2023/08/21 05:23:36;;;;;;;10.67;9.40;;;;;;;;;;5043622;28;20895;-73
2023/08/21 05:26:06;;;;;;;10.50;9.50;;;;;;;;;;5040385;28;20229;-74
2023/08/21 05:28:32;;;;;;;10.17;9.03;;;;;;;;;;5044203;28;20696;-73
2023/08/21 05:30:58;;;;;;;10.57;9.30;;;;;;;;;;5044262;28;20170;-77
2023/08/21 05:33:25;;;;;;;10.93;9.47;;;;;;;;;;5045090;28;20174;-73
2023/08/21 05:35:51;;;;;;;10.67;8.87;;;;;;;;;;5040384;28;20613;-73
2023/08/21 05:38:17;;;;;;;9.63;8.80;;;;;;;;;;5041723;28;20181;-73
2023/08/21 05:40:44;;;;;;;10.53;9.27;;;;;;;;;;5039565;28;20189;-73
2023/08/21 05:43:10;;;;;;;10.83;9.10;;;;;;;;;;5039441;28;20178;-73
2023/08/21 05:45:40;;;;;;;12.03;9.33;;;;;;;;;;5038038;28;20230;-73
2023/08/21 05:48:06;;;;;;;10.73;9.47;;;;;;;;;;5037584;28;20194;-72
2023/08/21 05:50:32;;;;;;;12.50;10.90;;;;;;;;;;5038100;28;20213;-72
2023/08/21 05:53:01;;;;;;;12.40;10.37;;;;;;;;;;5027617;28;20676;-72
2023/08/21 05:55:27;;;;;;;11.40;10.30;;;;;;;;;;5033138;28;20206;-72
2023/08/21 05:57:54;;;;;;;12.63;9.77;;;;;;;;;;5034392;28;20547;-72
2023/08/21 06:00:26;;;;;;;11.03;9.80;;;;;;;;;;5034963;28;20202;-73
2023/08/21 06:02:52;;;;;;;10.40;9.27;;;;;;;;;;5035206;28;20559;-72
2023/08/21 06:05:37;;;;;;;10.80;9.70;;;;;;;;;;5035768;28;20274;-71
2023/08/21 06:08:03;;;;;;;11.63;9.30;;;;;;;;;;5019591;28;20666;-71
2023/08/21 06:10:32;;;;;;;11.50;10.40;;;;;;;;;;5014989;28;20604;-72
2023/08/21 06:12:58;;;;;;;12.30;10.30;;;;;;;;;;5022472;28;20193;-72
2023/08/21 06:15:24;;;;;;;10.90;9.90;;;;;;;;;;5041438;28;20193;-73
2023/08/21 06:17:51;;;;;;;13.57;10.53;;;;;;;;;;5047287;28;20210;-73
2023/08/21 06:20:19;;;;;;;12.03;9.80;;;;;;;;;;5025553;28;20187;-72
2023/08/21 06:22:45;;;;;;;11.47;9.73;;;;;;;;;;5043530;28;20189;-71
2023/08/21 06:25:12;;;;;;;12.23;10.00;;;;;;;;;;5039972;28;20642;-72
2023/08/21 06:27:38;;;;;;;12.00;9.70;;;;;;;;;;5042388;28;20224;-72
2023/08/21 06:30:05;;;;;;;10.43;9.33;;;;;;;;;;5045999;28;20225;-71
2023/08/21 06:32:31;;;;;;;10.83;9.70;;;;;;;;;;5031434;28;20705;-72
2023/08/21 06:34:57;;;;;;;11.13;9.10;;;;;;;;;;5044178;28;20186;-72
2023/08/21 06:37:24;;;;;;;10.40;8.50;;;;;;;;;;5045920;28;20236;-71
2023/08/21 06:39:51;;;;;;;12.30;9.13;;;;;;;;;;5044920;28;20182;-72
2023/08/21 06:42:17;;;;;;;13.17;9.43;;;;;;;;;;5039777;28;20193;-72
2023/08/21 06:44:48;;;;;;;13.17;9.97;;;;;;;;;;5037378;28;20218;-73
2023/08/21 06:47:14;;;;;;;10.47;9.47;;;;;;;;;;5043551;28;20212;-72
2023/08/21 06:49:40;;;;;;;11.13;9.73;;;;;;;;;;5040337;28;20247;-72
2023/08/21 06:52:06;;;;;;;11.90;9.10;;;;;;;;;;5038907;28;20215;-72
2023/08/21 06:54:33;;;;;;;10.90;9.00;;;;;;;;;;5044030;28;20179;-72
2023/08/21 06:56:59;;;;;;;15.63;9.53;;;;;;;;;;5042586;28;20198;-72
2023/08/21 06:59:25;;;;;;;9.93;8.90;;;;;;;;;;5039220;28;20554;-71
2023/08/21 07:01:51;;;;;;;11.13;9.37;;;;;;;;;;5049284;28;20749;-72
2023/08/21 07:04:17;;;;;;;10.67;9.20;;;;;;;;;;5049219;28;20541;-71
2023/08/21 07:06:44;;;;;;;9.97;8.97;;;;;;;;;;5051844;28;20283;-71
2023/08/21 07:09:10;;;;;;;9.97;8.83;;;;;;;;;;5040736;28;20218;-71
2023/08/21 07:11:36;;;;;;;12.07;8.83;;;;;;;;;;5038365;28;20741;-72
2023/08/21 07:14:02;;;;;;;9.33;8.43;;;;;;;;;;5044832;28;20226;-72
2023/08/21 07:16:28;;;;;;;9.77;8.77;;;;;;;;;;5048804;28;20277;-72
2023/08/21 07:18:55;;;;;;;10.07;8.27;;;;;;;;;;5042498;28;20756;-73
2023/08/21 07:21:21;;;;;;;10.70;9.00;;;;;;;;;;5049372;28;20281;-72
2023/08/21 07:23:47;;;;;;;10.80;8.90;;;;;;;;;;5038355;28;20194;-72
2023/08/21 07:26:13;;;;;;;9.03;8.13;;;;;;;;;;5048116;28;20203;-72
2023/08/21 07:28:39;;;;;;;10.03;8.63;;;;;;;;;;5048621;28;20298;-72
2023/08/21 07:31:05;;;;;;;11.17;9.83;;;;;;;;;;5044598;28;20179;-72
2023/08/21 07:33:31;;;;;;;11.73;8.80;;;;;;;;;;5048041;28;20201;-72
2023/08/21 07:35:58;;;;;;;12.13;8.80;;;;;;;;;;5048983;28;20230;-72
2023/08/21 07:38:25;;;;;;;9.83;8.70;;;;;;;;;;5049555;28;20303;-73
2023/08/21 07:40:51;;;;;;;12.27;8.60;;;;;;;;;;5048185;28;20183;-71
2023/08/21 07:43:17;;;;;;;9.70;8.43;;;;;;;;;;5046961;28;20182;-74
2023/08/21 07:45:43;;;;;;;9.80;8.80;;;;;;;;;;5045984;28;20684;-75
2023/08/21 07:48:10;;;;;;;11.43;8.23;;;;;;;;;;5041615;28;20221;-73
2023/08/21 07:50:36;;;;;;;10.03;8.30;;;;;;;;;;5043685;28;20645;-72
2023/08/21 07:53:02;;;;;;;9.20;8.10;;;;;;;;;;5045165;28;20238;-72
2023/08/21 07:55:28;;;;;;;10.80;8.60;;;;;;;;;;5041823;28;20193;-72
2023/08/21 07:57:54;;;;;;;11.33;8.77;;;;;;;;;;5046241;28;20170;-71
2023/08/21 08:00:21;;;;;;;12.57;8.90;;;;;;;;;;5050117;28;20185;-72
2023/08/21 08:02:47;;;;;;;9.60;8.60;;;;;;;;;;5049370;28;20242;-72
2023/08/21 08:05:13;;;;;;;9.67;8.67;;;;;;;;;;5045157;28;20180;-72
2023/08/21 08:07:39;;;;;;;10.07;9.07;;;;;;;;;;5049156;28;20185;-73
2023/08/21 08:10:06;;;;;;;9.80;8.87;;;;;;;;;;5048059;28;20279;-73
2023/08/21 08:12:33;;;;;;;9.63;8.63;;;;;;;;;;5046793;28;20177;-72
2023/08/21 08:14:59;;;;;;;11.87;8.33;;;;;;;;;;5044298;28;20178;-72
2023/08/21 08:17:25;;;;;;;9.20;8.30;;;;;;;;;;5047460;28;20220;-76
2023/08/21 08:19:51;;;;;;;10.07;8.77;;;;;;;;;;5047130;28;20331;-76
2023/08/21 08:22:17;;;;;;;9.27;8.37;;;;;;;;;;5048290;28;20197;-74
2023/08/21 08:24:43;;;;;;;9.23;8.37;;;;;;;;;;5050622;28;20201;-75
2023/08/21 08:27:10;;;;;;;13.20;8.70;;;;;;;;;;5047343;28;20209;-75
2023/08/21 08:29:36;;;;;;;8.13;7.33;;;;;;;;;;5045930;28;20221;-74
2023/08/21 08:32:02;;;;;;;8.60;7.80;;;;;;;;;;5045783;28;20186;-75
2023/08/21 08:34:29;;;;;;;9.00;8.13;;;;;;;;;;5042592;28;20270;-74
2023/08/21 08:36:55;;;;;;;8.50;7.60;;;;;;;;;;5043370;28;20743;-75
2023/08/21 08:39:21;;;;;;;8.13;7.33;;;;;;;;;;5036941;28;20185;-74
2023/08/21 08:41:59;;;;;;;8.20;7.40;;;;;;;;;;5046618;28;20177;-75
2023/08/21 08:44:26;;;;;;;9.13;7.87;;;;;;;;;;5044639;28;20267;-75
2023/08/21 08:46:52;;;;;;;8.27;7.57;;;;;;;;;;5045402;28;20206;-77
2023/08/21 08:49:19;;;;;;;9.47;8.40;;;;;;;;;;5046665;28;20320;-79
2023/08/21 08:51:48;;;;;;;8.20;7.43;;;;;;;;;;5043550;28;20637;-78
2023/08/21 08:54:16;;;;;;;8.87;7.87;;;;;;;;;;5043628;28;20178;-77
2023/08/21 08:56:42;;;;;;;9.63;8.37;;;;;;;;;;5042340;28;20737;-74
2023/08/21 08:59:09;;;;;;;9.90;8.20;;;;;;;;;;5041194;28;20251;-74
2023/08/21 09:01:35;;;;;;;8.87;7.90;;;;;;;;;;5048182;28;20189;-73
2023/08/21 09:04:01;;;;;;;8.00;7.20;;;;;;;;;;5044336;28;20186;-74
2023/08/21 09:06:28;;;;;;;10.37;8.47;;;;;;;;;;5048450;28;20288;-73
2023/08/21 09:08:58;;;;;;;9.70;7.53;;;;;;;;;;5044305;28;20225;-74
2023/08/21 09:11:24;;;;;;;9.33;7.87;;;;;;;;;;5046737;28;20192;-75
2023/08/21 09:13:51;;;;;;;9.57;8.00;;;;;;;;;;5047205;28;20632;-74
2023/08/21 09:16:18;;;;;;;7.90;7.20;;;;;;;;;;5040612;28;20566;-74
2023/08/21 09:18:48;;;;;;;7.70;7.00;;;;;;;;;;5048065;28;20186;-74
2023/08/21 09:21:18;;;;;;;9.67;7.50;;;;;;;;;;5038537;28;20729;-74
2023/08/21 09:23:48;;;;;;;7.53;6.67;;;;;;;;;;5048466;28;20197;-74
2023/08/21 09:26:21;;;;;;;9.50;7.23;;;;;;;;;;5023185;28;20296;-74
2023/08/21 09:28:48;;;;;;;8.27;7.17;;;;;;;;;;5043300;28;20214;-74
2023/08/21 09:31:14;;;;;;;7.97;6.93;;;;;;;;;;5044496;28;20260;-74
2023/08/21 09:33:40;;;;;;;7.40;6.70;;;;;;;;;;5047591;28;20170;-74
2023/08/21 09:36:07;;;;;;;9.83;6.93;;;;;;;;;;5049063;28;20629;-74
2023/08/21 09:38:38;;;;;;;7.10;6.43;;;;;;;;;;5041854;28;20186;-74
2023/08/21 09:41:04;;;;;;;6.80;6.10;;;;;;;;;;5037785;28;20178;-74
2023/08/21 09:43:30;;;;;;;9.57;6.80;;;;;;;;;;5036194;28;20193;-74
2023/08/21 09:45:56;;;;;;;7.23;6.53;;;;;;;;;;5043391;28;20212;-74
2023/08/21 09:48:23;;;;;;;7.20;6.30;;;;;;;;;;5039996;28;20268;-75
2023/08/21 09:50:51;;;;;;;7.03;6.30;;;;;;;;;;5039955;28;20679;-74
2023/08/21 09:53:19;;;;;;;8.60;6.87;;;;;;;;;;5046099;28;20211;-75
2023/08/21 09:56:04;;;;;;;8.73;6.80;;;;;;;;;;5038333;28;20210;-74
2023/08/21 09:58:30;;;;;;;10.20;6.50;;;;;;;;;;5044853;28;20182;-76
2023/08/21 10:00:57;;;;;;;9.43;6.23;;;;;;;;;;5037183;28;20181;-76
2023/08/21 10:03:23;;;;;;;9.93;6.60;;;;;;;;;;5046080;28;20169;-76
2023/08/21 10:05:50;;;;;;;6.73;6.07;;;;;;;;;;5039860;28;20209;-74
2023/08/21 10:08:20;;;;;;;9.23;6.13;;;;;;;;;;5043453;28;20186;-75
2023/08/21 10:10:46;;;;;;;8.20;6.03;;;;;;;;;;5040291;28;20193;-74
2023/08/21 10:13:13;;;;;;;9.23;6.10;;;;;;;;;;5041856;28;20185;-77
2023/08/21 10:15:39;;;;;;;6.93;6.10;;;;;;;;;;5048953;28;20210;-75
2023/08/21 10:18:19;;;;;;;6.93;6.23;;;;;;;;;;5036755;28;20178;-76
2023/08/21 10:20:46;;;;;;;6.87;6.17;;;;;;;;;;5030028;28;20243;-76
2023/08/21 10:23:23;;;;;;;7.23;6.10;;;;;;;;;;5041994;28;20719;-76
2023/08/21 10:25:54;;;;;;;9.67;5.80;;;;;;;;;;5041699;28;20573;-76
2023/08/21 10:28:20;;;;;;;7.83;5.83;;;;;;;;;;5040348;28;20183;-77
2023/08/21 10:30:47;;;;;;;7.53;5.87;;;;;;;;;;5042097;28;20262;-74
2023/08/21 10:33:13;;;;;;;6.17;5.30;;;;;;;;;;5046441;28;20186;-76
2023/08/21 10:35:39;;;;;;;6.50;5.87;;;;;;;;;;5047313;28;20201;-76
2023/08/21 10:38:10;;;;;;;5.97;5.47;;;;;;;;;;5043620;28;20187;-76
2023/08/21 10:40:36;;;;;;;5.80;5.20;;;;;;;;;;5042011;28;20603;-74
2023/08/21 10:43:03;;;;;;;5.70;4.97;;;;;;;;;;5050816;28;20192;-75
2023/08/21 10:45:29;;;;;;;5.77;5.23;;;;;;;;;;5062189;28;20202;-77
2023/08/21 10:48:00;;;;;;;6.20;4.80;;;;;;;;;;5040955;28;20186;-77
2023/08/21 10:50:26;;;;;;;5.17;4.67;;;;;;;;;;5047616;28;20632;-76
2023/08/21 10:52:53;;;;;;;5.97;4.80;;;;;;;;;;5046777;28;20211;-77
2023/08/21 10:55:20;;;;;;;4.73;4.23;;;;;;;;;;5046193;28;20253;-79
2023/08/21 10:57:49;;;;;;;5.10;4.70;;;;;;;;;;5050874;28;20204;-78
2023/08/21 11:00:17;;;;;;;7.63;4.20;;;;;;;;;;5047379;28;20845;-79
2023/08/21 11:02:44;;;;;;;4.87;4.10;;;;;;;;;;5043827;28;20198;-74
2023/08/21 11:05:11;;;;;;;4.67;4.17;;;;;;;;;;5049917;28;20178;-77
2023/08/21 11:07:39;;;;;;;5.50;4.47;;;;;;;;;;5045613;28;20190;-77
2023/08/21 11:10:08;;;;;;;5.37;4.40;;;;;;;;;;5048268;28;20484;-81
2023/08/21 11:12:34;;;;;;;5.00;3.93;;;;;;;;;;5048868;28;20560;-79
2023/08/21 11:15:00;;;;;;;4.70;3.90;;;;;;;;;;5048517;28;20180;-78
2023/08/21 11:17:26;;;;;;;4.03;3.47;;;;;;;;;;5046697;28;20300;-84
2023/08/21 11:19:53;;;;;;;4.73;3.23;;;;;;;;;;5044726;28;20202;-79
2023/08/21 11:22:19;;;;;;;4.50;3.43;;;;;;;;;;5030542;28;20210;-80
2023/08/21 11:24:45;;;;;;;4.37;3.23;;;;;;;;;;5046869;28;20208;-78
2023/08/21 11:27:12;;;;;;;3.60;3.30;;;;;;;;;;5042644;28;20678;-77
2023/08/21 11:29:41;;;;;;;3.60;3.23;;;;;;;;;;5038643;28;20202;-79
2023/08/21 11:32:15;;;;;;;4.93;3.40;;;;;;;;;;5041419;28;20190;-79
2023/08/21 11:34:44;;;;;;;3.87;3.40;;;;;;;;;;5041034;28;20203;-78
2023/08/21 11:37:10;;;;;;;4.83;3.63;;;;;;;;;;5047256;28;20208;-78
2023/08/21 11:39:44;;;;;;;4.77;3.90;;;;;;;;;;5047897;28;20218;-77
2023/08/21 11:42:12;;;;;;;3.77;3.40;;;;;;;;;;5048812;28;20273;-79
2023/08/21 11:44:42;;;;;;;4.57;4.13;;;;;;;;;;5045345;28;20196;-75
2023/08/21 11:47:08;;;;;;;5.37;3.87;;;;;;;;;;5048858;28;20213;-79
2023/08/21 11:49:37;;;;;;;5.67;4.20;;;;;;;;;;5052960;28;20213;-78
2023/08/21 11:52:03;;;;;;;6.17;4.10;;;;;;;;;;5042999;28;20187;-79
2023/08/21 11:54:33;;;;;;;4.90;4.20;;;;;;;;;;5047904;28;20571;-79
2023/08/21 11:56:59;;;;;;;5.07;4.67;;;;;;;;;;5052416;28;20205;-78
2023/08/21 11:59:25;;;;;;;5.10;4.60;;;;;;;;;;5050614;28;20200;-79
2023/08/21 12:01:52;;;;;;;6.23;4.70;;;;;;;;;;5053414;28;20702;-78
2023/08/21 12:04:18;;;;;;;6.70;4.73;;;;;;;;;;5049175;28;20332;-79
2023/08/21 12:06:45;;;;;;;5.13;4.50;;;;;;;;;;5047272;28;20217;-78
2023/08/21 12:09:11;;;;;;;5.10;4.60;;;;;;;;;;5046282;28;20721;-76
2023/08/21 12:11:40;;;;;;;4.70;4.30;;;;;;;;;;5050351;28;20189;-78
2023/08/21 12:14:07;;;;;;;5.30;4.80;;;;;;;;;;5047368;28;20278;-77
2023/08/21 12:16:33;;;;;;;4.50;4.10;;;;;;;;;;5045816;28;20287;-78
2023/08/21 12:18:59;;;;;;;4.03;3.67;;;;;;;;;;5045188;28;20272;-78
2023/08/21 12:21:26;;;;;;;4.57;4.00;;;;;;;;;;5032548;28;20192;-78
2023/08/21 12:23:52;;;;;;;3.90;3.60;;;;;;;;;;5039469;28;20200;-77
2023/08/21 12:26:20;;;;;;;4.20;3.80;;;;;;;;;;5046132;28;20202;-77
2023/08/21 12:28:50;;;;;;;4.40;4.00;;;;;;;;;;5044905;28;20218;-78
2023/08/21 12:31:16;;;;;;;4.47;3.60;;;;;;;;;;5047046;28;20183;-82
2023/08/21 12:33:42;;;;;;;4.67;4.10;;;;;;;;;;5044617;28;20275;-78
2023/08/21 12:36:09;;;;;;;5.00;3.53;;;;;;;;;;5042182;28;20283;-78
2023/08/21 12:38:35;;;;;;;6.30;3.70;;;;;;;;;;5045337;28;20259;-77
2023/08/21 12:41:04;;;;;;;5.40;3.80;;;;;;;;;;5039082;28;20188;-76
2023/08/21 12:43:32;;;;;;;4.80;3.60;;;;;;;;;;5038714;28;20268;-77
2023/08/21 12:45:58;;;;;;;3.50;3.20;;;;;;;;;;5041755;28;20204;-77
2023/08/21 12:48:24;;;;;;;3.70;3.40;;;;;;;;;;5043504;28;20185;-77
2023/08/21 12:50:51;;;;;;;3.75;3.45;;;;;;;;;;5042159;28;20662;-77
2023/08/21 12:53:17;;;;;;;3.80;3.50;;;;;;;;;;5042908;28;20190;-77
2023/08/21 12:55:44;;;;;;;4.37;3.20;;;;;;;;;;5045112;28;20700;-77
2023/08/21 12:58:13;;;;;;;3.88;3.50;;;;;;;;;;5050172;28;20198;-77
2023/08/21 13:00:39;;;;;;;4.68;3.22;;;;;;;;;;5048629;28;20179;-75
2023/08/21 13:03:05;;;;;;;4.28;3.00;;;;;;;;;;5048316;28;20181;-77
2023/08/21 13:05:32;;;;;;;3.78;2.70;;;;;;;;;;5046819;28;20202;-76
2023/08/21 13:07:58;;;;;;;3.45;3.15;;;;;;;;;;5049214;28;20259;-80
2023/08/21 13:10:24;;;;;;;3.42;2.90;;;;;;;;;;5051814;28;20252;-80
2023/08/21 13:12:51;;;;;;;3.55;2.70;;;;;;;;;;5052499;28;20368;-76
2023/08/21 13:15:17;;;;;;;4.75;3.05;;;;;;;;;;5047895;28;20182;-78
2023/08/21 13:17:43;;;;;;;3.10;2.80;;;;;;;;;;5065921;22;20217;-79
2023/08/21 13:20:13;;;;;;;4.60;2.90;;;;;;;;;;5032006;28;20185;-80
2023/08/21 13:22:50;;;;;;;2.95;2.70;;;;;;;;;;5055092;28;20594;-79
2023/08/21 13:25:18;;;;;;;6.35;2.90;;;;;;;;;;5060449;28;20200;-81
2023/08/21 13:27:44;;;;;;;3.13;2.70;;;;;;;;;;5049256;28;20668;-80
2023/08/21 13:30:11;;;;;;;3.10;2.83;;;;;;;;;;5043065;28;20226;-79
2023/08/21 13:32:37;;;;;;;3.85;3.20;;;;;;;;;;5045409;28;20181;-80
2023/08/21 13:35:06;;;;;;;2.97;2.70;;;;;;;;;;5042687;28;20189;-79
2023/08/21 13:37:33;;;;;;;3.38;3.08;;;;;;;;;;5047533;28;20242;-79
2023/08/21 13:40:00;;;;;;;3.50;2.85;;;;;;;;;;5025399;28;20191;-80
2023/08/21 13:42:31;;;;;;;4.30;2.80;;;;;;;;;;5056390;28;20244;-80
2023/08/21 13:44:57;;;;;;;6.22;3.15;;;;;;;;;;5045700;28;20186;-79
2023/08/21 13:47:23;;;;;;;3.38;2.80;;;;;;;;;;5045484;28;20204;-81
2023/08/21 13:49:50;;;;;;;3.47;3.17;;;;;;;;;;5047891;28;20278;-82
2023/08/21 13:52:16;;;;;;;2.70;2.50;;;;;;;;;;5050431;28;20181;-80
2023/08/21 13:54:42;;;;;;;7.10;2.90;;;;;;;;;;5048897;28;20186;-80
2023/08/21 13:57:09;;;;;;;2.53;2.30;;;;;;;;;;5046227;28;20193;-80
2023/08/21 13:59:35;;;;;;;3.05;2.60;;;;;;;;;;5046756;28;20651;-80
2023/08/21 14:02:01;;;;;;;2.30;2.10;;;;;;;;;;5050035;28;20191;-79
2023/08/21 14:04:27;;;;;;;3.40;2.20;;;;;;;;;;5041924;28;20192;-80
2023/08/21 14:06:53;;;;;;;2.67;2.20;;;;;;;;;;5049172;28;20822;-80
2023/08/21 14:09:19;;;;;;;4.43;2.40;;;;;;;;;;5051302;28;20209;-80
2023/08/21 14:11:45;;;;;;;3.47;2.53;;;;;;;;;;5054101;28;20196;-83
2023/08/21 14:14:12;;;;;;;3.88;3.10;;;;;;;;;;5040118;28;20236;-83
2023/08/21 14:16:38;;;;;;;2.92;2.63;;;;;;;;;;5056502;28;20232;-83
2023/08/21 14:19:04;;;;;;;2.60;2.40;;;;;;;;;;5057050;28;20204;-83
2023/08/21 14:21:31;;;;;;;3.15;2.10;;;;;;;;;;5053022;28;20192;-83
2023/08/21 14:23:57;;;;;;;3.47;2.60;;;;;;;;;;5055286;28;20601;-83
2023/08/21 14:26:23;;;;;;;2.53;2.33;;;;;;;;;;5055606;28;20219;-83
2023/08/21 14:28:50;;;;;;;3.75;2.30;;;;;;;;;;5057424;28;20197;-83
2023/08/21 14:31:17;;;;;;;3.28;2.45;;;;;;;;;;5053293;28;20224;-83
2023/08/21 14:33:43;;;;;;;2.75;2.40;;;;;;;;;;5057291;28;20204;-84
2023/08/21 14:36:10;;;;;;;2.60;2.20;;;;;;;;;;5059687;28;20178;-83